createdAt,value
2022-08-20T00:00:25.712Z,20.86
2022-08-20T00:01:12.319Z,20.91
2022-08-20T00:01:58.984Z,20.87
2022-08-20T00:02:54.246Z,20.85
2022-08-20T00:03:44.850Z,20.92
2022-08-20T00:04:39.845Z,20.71
2022-08-20T00:05:32.537Z,20.90
2022-08-20T00:06:25.925Z,20.78
2022-08-20T00:07:14.463Z,20.75
2022-08-20T00:08:01.743Z,20.69
2022-08-20T00:08:48.892Z,20.80
2022-08-20T00:09:36.497Z,20.78
2022-08-20T00:10:23.541Z,20.75
2022-08-20T00:11:15.050Z,20.74
2022-08-20T00:12:02.157Z,20.80
2022-08-20T00:12:50.464Z,20.74
2022-08-20T00:13:47.215Z,20.75
2022-08-20T00:14:35.885Z,20.76
2022-08-20T00:15:29.729Z,20.86
2022-08-20T00:16:20.396Z,20.63
2022-08-20T00:17:09.955Z,20.65
2022-08-20T00:17:58.460Z,20.70
2022-08-20T00:18:45.758Z,20.69
2022-08-20T00:19:35.302Z,20.74
2022-08-20T00:20:25.715Z,20.72
2022-08-20T00:21:19.118Z,20.78
2022-08-20T00:22:06.231Z,20.81
2022-08-20T00:22:53.308Z,20.83
2022-08-20T00:23:43.067Z,20.74
2022-08-20T00:24:29.810Z,20.80
2022-08-20T00:25:20.180Z,20.81
2022-08-20T00:26:08.033Z,20.81
2022-08-20T00:26:59.406Z,20.68
2022-08-20T00:27:45.897Z,20.81
2022-08-20T00:28:32.756Z,20.83
2022-08-20T00:29:24.940Z,20.67
2022-08-20T00:30:13.392Z,20.63
2022-08-20T00:30:59.980Z,20.80
2022-08-20T00:31:46.589Z,20.74
2022-08-20T00:32:45.144Z,20.76
2022-08-20T00:33:37.114Z,20.94
2022-08-20T00:34:24.141Z,20.91
2022-08-20T00:35:12.945Z,20.95
2022-08-20T00:36:07.051Z,20.74
2022-08-20T00:36:56.271Z,20.76
2022-08-20T00:37:42.788Z,20.80
2022-08-20T00:38:31.481Z,20.74
2022-08-20T00:39:18.003Z,20.67
2022-08-20T00:40:06.564Z,20.66
2022-08-20T00:41:13.710Z,20.65
2022-08-20T00:42:01.019Z,20.64
2022-08-20T00:42:58.075Z,20.58
2022-08-20T00:44:10.280Z,20.64
2022-08-20T00:44:56.953Z,20.59
2022-08-20T00:45:43.634Z,20.48
2022-08-20T00:46:32.947Z,20.48
2022-08-20T00:47:20.379Z,20.40
2022-08-20T00:48:06.975Z,20.25
2022-08-20T00:48:55.987Z,20.16
2022-08-20T00:49:45.491Z,20.16
2022-08-20T00:50:38.171Z,20.05
2022-08-20T00:51:32.303Z,20.11
2022-08-20T00:52:22.065Z,19.91
2022-08-20T00:53:11.368Z,20.06
2022-08-20T00:54:08.390Z,19.86
2022-08-20T00:55:00.336Z,19.87
2022-08-20T00:55:47.090Z,19.97
2022-08-20T00:56:34.951Z,20.07
2022-08-20T00:57:55.770Z,19.94
2022-08-20T00:58:39.943Z,20.07
2022-08-20T00:59:32.541Z,20.06
2022-08-20T01:00:27.580Z,20.04
2022-08-20T01:01:15.639Z,20.14
2022-08-20T01:02:05.490Z,19.95
2022-08-20T01:02:53.054Z,20.09
2022-08-20T01:03:42.251Z,19.95
2022-08-20T01:04:31.602Z,19.97
2022-08-20T01:05:18.722Z,19.85
2022-08-20T01:06:05.421Z,20.06
2022-08-20T01:06:52.457Z,20.08
2022-08-20T01:07:39.476Z,20.06
2022-08-20T01:08:26.767Z,19.99
2022-08-20T01:09:13.996Z,19.99
2022-08-20T01:10:19.314Z,19.92
2022-08-20T01:11:09.751Z,19.91
2022-08-20T01:11:56.470Z,19.79
2022-08-20T01:12:46.336Z,19.92
2022-08-20T01:13:38.458Z,19.82
2022-08-20T01:14:34.333Z,19.92
2022-08-20T01:15:30.685Z,19.91
2022-08-20T01:16:30.129Z,19.87
2022-08-20T01:17:22.150Z,19.93
2022-08-20T01:18:13.729Z,19.86
2022-08-20T01:19:02.563Z,19.79
2022-08-20T01:19:57.627Z,19.75
2022-08-20T01:21:08.423Z,19.77
2022-08-20T01:21:56.001Z,19.65
2022-08-20T01:23:30.184Z,19.73
2022-08-20T01:24:40.804Z,19.58
2022-08-20T01:25:50.258Z,19.66
2022-08-20T01:26:47.235Z,19.79
2022-08-20T01:27:35.250Z,19.79
2022-08-20T01:28:43.639Z,19.70
2022-08-20T01:29:37.379Z,19.66
2022-08-20T01:30:28.707Z,19.76
2022-08-20T01:31:19.998Z,19.61
2022-08-20T01:32:07.168Z,19.53
2022-08-20T01:32:53.662Z,19.53
2022-08-20T01:33:41.142Z,19.67
2022-08-20T01:34:30.720Z,19.64
2022-08-20T01:35:22.550Z,19.67
2022-08-20T01:36:12.873Z,19.67
2022-08-20T01:37:00.402Z,19.59
2022-08-20T01:37:46.963Z,19.74
2022-08-20T01:38:34.821Z,19.73
2022-08-20T01:39:31.406Z,19.71
2022-08-20T01:40:31.646Z,19.48
2022-08-20T01:41:43.675Z,19.63
2022-08-20T01:42:58.462Z,19.55
2022-08-20T01:43:47.219Z,19.63
2022-08-20T01:44:38.459Z,19.59
2022-08-20T01:45:30.910Z,19.73
2022-08-20T01:46:18.171Z,19.68
2022-08-20T01:47:17.580Z,19.62
2022-08-20T01:48:04.804Z,19.62
2022-08-20T01:48:54.177Z,19.61
2022-08-20T01:49:44.905Z,19.55
2022-08-20T01:50:33.903Z,19.64
2022-08-20T01:51:28.644Z,19.67
2022-08-20T01:52:31.081Z,19.67
2022-08-20T01:53:33.756Z,19.67
2022-08-20T01:54:21.860Z,19.61
2022-08-20T01:55:10.083Z,19.75
2022-08-20T01:55:59.671Z,19.82
2022-08-20T01:56:57.279Z,19.69
2022-08-20T01:57:45.051Z,19.68
2022-08-20T01:58:34.454Z,19.59
2022-08-20T01:59:22.065Z,19.68
2022-08-20T02:00:19.054Z,19.52
2022-08-20T02:01:07.436Z,19.48
2022-08-20T02:01:54.781Z,19.46
2022-08-20T02:02:43.104Z,19.48
2022-08-20T02:03:37.412Z,19.37
2022-08-20T02:04:26.778Z,19.45
2022-08-20T02:05:13.307Z,19.33
2022-08-20T02:06:01.709Z,19.43
2022-08-20T02:06:56.769Z,19.40
2022-08-20T02:07:44.152Z,19.46
2022-08-20T02:08:32.938Z,19.41
2022-08-20T02:09:21.661Z,19.44
2022-08-20T02:10:11.139Z,19.40
2022-08-20T02:10:57.734Z,19.40
2022-08-20T02:11:45.159Z,19.42
2022-08-20T02:12:31.765Z,19.34
2022-08-20T02:13:18.704Z,19.34
2022-08-20T02:14:09.940Z,19.40
2022-08-20T02:14:59.391Z,19.40
2022-08-20T02:15:46.132Z,19.47
2022-08-20T02:16:39.298Z,19.49
2022-08-20T02:17:26.213Z,19.51
2022-08-20T02:18:16.790Z,19.48
2022-08-20T02:19:15.214Z,19.41
2022-08-20T02:20:11.252Z,19.52
2022-08-20T02:20:57.809Z,19.51
2022-08-20T02:21:48.884Z,19.48
2022-08-20T02:22:49.800Z,19.48
2022-08-20T02:23:36.725Z,19.50
2022-08-20T02:24:23.237Z,19.53
2022-08-20T02:25:11.818Z,19.58
2022-08-20T02:26:01.167Z,19.52
2022-08-20T02:26:49.422Z,19.53
2022-08-20T02:27:40.180Z,19.49
2022-08-20T02:28:27.901Z,19.42
2022-08-20T02:29:15.159Z,19.52
2022-08-20T02:30:19.927Z,19.39
2022-08-20T02:31:15.982Z,19.44
2022-08-20T02:32:25.065Z,19.32
2022-08-20T02:33:12.080Z,19.33
2022-08-20T02:34:21.961Z,19.39
2022-08-20T02:35:12.623Z,19.36
2022-08-20T02:35:59.203Z,19.34
2022-08-20T02:36:48.791Z,19.10
2022-08-20T02:37:37.609Z,19.18
2022-08-20T02:38:27.379Z,19.19
2022-08-20T02:39:13.994Z,19.29
2022-08-20T02:40:01.055Z,19.30
2022-08-20T02:40:49.953Z,19.20
2022-08-20T02:41:38.214Z,19.21
2022-08-20T02:42:25.028Z,19.30
2022-08-20T02:43:12.331Z,19.29
2022-08-20T02:43:58.923Z,19.32
2022-08-20T02:44:46.326Z,19.19
2022-08-20T02:45:43.639Z,19.32
2022-08-20T02:46:30.970Z,19.33
2022-08-20T02:47:17.794Z,19.20
2022-08-20T02:48:05.567Z,19.24
2022-08-20T02:48:52.104Z,19.34
2022-08-20T02:49:39.274Z,19.40
2022-08-20T02:50:27.381Z,19.27
2022-08-20T02:51:13.912Z,19.34
2022-08-20T02:52:00.568Z,19.28
2022-08-20T02:52:51.871Z,19.40
2022-08-20T02:53:41.947Z,19.36
2022-08-20T02:54:31.330Z,19.28
2022-08-20T02:55:25.972Z,19.30
2022-08-20T02:56:15.186Z,19.32
2022-08-20T02:57:03.539Z,19.41
2022-08-20T02:57:50.854Z,19.41
2022-08-20T02:58:41.261Z,19.32
2022-08-20T02:59:27.814Z,19.26
2022-08-20T03:00:19.135Z,19.33
2022-08-20T03:01:09.485Z,19.35
2022-08-20T03:02:00.417Z,19.35
2022-08-20T03:02:48.172Z,19.24
2022-08-20T03:03:35.135Z,19.36
2022-08-20T03:04:21.738Z,19.44
2022-08-20T03:05:13.812Z,19.34
2022-08-20T03:06:02.613Z,19.39
2022-08-20T03:06:49.215Z,19.43
2022-08-20T03:07:53.729Z,19.38
2022-08-20T03:08:41.337Z,19.32
2022-08-20T03:09:27.975Z,19.37
2022-08-20T03:10:15.538Z,19.34
2022-08-20T03:11:03.386Z,19.36
2022-08-20T03:11:50.048Z,19.21
2022-08-20T03:12:38.337Z,19.25
2022-08-20T03:13:25.090Z,19.33
2022-08-20T03:14:12.807Z,19.28
2022-08-20T03:14:59.518Z,19.35
2022-08-20T03:15:56.496Z,19.36
2022-08-20T03:16:45.130Z,19.31
2022-08-20T03:17:32.073Z,19.25
2022-08-20T03:18:20.826Z,19.38
2022-08-20T03:19:08.488Z,19.26
2022-08-20T03:19:55.199Z,19.28
2022-08-20T03:20:42.486Z,19.43
2022-08-20T03:21:32.526Z,19.42
2022-08-20T03:22:19.048Z,19.42
2022-08-20T03:23:06.187Z,19.48
2022-08-20T03:23:52.744Z,19.42
2022-08-20T03:24:39.823Z,19.40
2022-08-20T03:25:26.904Z,19.40
2022-08-20T03:26:14.007Z,19.51
2022-08-20T03:27:00.701Z,19.55
2022-08-20T03:27:47.367Z,19.47
2022-08-20T03:28:41.373Z,19.49
2022-08-20T03:29:28.038Z,19.39
2022-08-20T03:30:16.214Z,19.46
2022-08-20T03:31:06.610Z,19.43
2022-08-20T03:31:59.417Z,19.45
2022-08-20T03:32:46.176Z,19.38
2022-08-20T03:33:34.147Z,19.56
2022-08-20T03:34:20.892Z,19.48
2022-08-20T03:35:11.089Z,19.51
2022-08-20T03:35:58.428Z,19.62
2022-08-20T03:36:45.160Z,19.50
2022-08-20T03:37:33.672Z,19.66
2022-08-20T03:38:32.232Z,19.66
2022-08-20T03:39:20.300Z,19.51
2022-08-20T03:40:11.095Z,19.67
2022-08-20T03:40:57.933Z,19.74
2022-08-20T03:41:46.797Z,19.77
2022-08-20T03:42:33.595Z,19.77
2022-08-20T03:43:20.155Z,19.77
2022-08-20T03:44:07.314Z,19.72
2022-08-20T03:44:58.681Z,19.74
2022-08-20T03:45:46.515Z,19.63
2022-08-20T03:46:35.052Z,19.73
2022-08-20T03:47:21.642Z,19.73
2022-08-20T03:48:11.726Z,19.63
2022-08-20T03:49:00.499Z,19.66
2022-08-20T03:49:47.519Z,19.67
2022-08-20T03:50:35.218Z,19.67
2022-08-20T03:51:21.702Z,19.67
2022-08-20T03:52:11.724Z,19.67
2022-08-20T03:52:59.522Z,19.71
2022-08-20T03:53:46.357Z,19.71
2022-08-20T03:54:33.053Z,19.73
2022-08-20T03:55:21.709Z,19.72
2022-08-20T03:56:08.397Z,19.70
2022-08-20T03:56:54.932Z,19.56
2022-08-20T03:57:55.741Z,19.67
2022-08-20T03:58:42.591Z,19.65
2022-08-20T03:59:33.024Z,19.59
2022-08-20T04:00:24.693Z,19.57
2022-08-20T04:01:36.895Z,19.54
2022-08-20T04:02:20.056Z,19.53
2022-08-20T04:03:08.272Z,19.53
2022-08-20T04:03:55.375Z,19.55
2022-08-20T04:04:42.115Z,19.55
2022-08-20T04:05:31.223Z,19.48
2022-08-20T04:06:18.298Z,19.56
2022-08-20T04:07:21.880Z,19.54
2022-08-20T04:08:14.301Z,19.56
2022-08-20T04:09:01.459Z,19.46
2022-08-20T04:09:48.150Z,19.56
2022-08-20T04:10:35.873Z,19.58
2022-08-20T04:11:22.513Z,19.54
2022-08-20T04:12:12.891Z,19.57
2022-08-20T04:12:59.999Z,19.53
2022-08-20T04:13:48.572Z,19.59
2022-08-20T04:14:36.481Z,19.61
2022-08-20T04:15:27.096Z,19.67
2022-08-20T04:16:14.880Z,19.63
2022-08-20T04:17:12.166Z,19.63
2022-08-20T04:18:04.577Z,19.55
2022-08-20T04:19:01.411Z,19.58
2022-08-20T04:19:48.814Z,19.36
2022-08-20T04:20:38.324Z,19.63
2022-08-20T04:21:24.966Z,19.68
2022-08-20T04:22:16.359Z,19.60
2022-08-20T04:23:04.393Z,19.71
2022-08-20T04:23:52.256Z,19.72
2022-08-20T04:24:38.960Z,19.74
2022-08-20T04:25:26.010Z,19.70
2022-08-20T04:26:13.904Z,19.71
2022-08-20T04:27:07.272Z,19.77
2022-08-20T04:27:53.802Z,19.58
2022-08-20T04:28:40.457Z,19.65
2022-08-20T04:29:32.240Z,19.71
2022-08-20T04:30:25.964Z,19.77
2022-08-20T04:31:14.179Z,19.80
2022-08-20T04:32:02.805Z,19.89
2022-08-20T04:32:53.219Z,19.78
2022-08-20T04:33:43.113Z,19.88
2022-08-20T04:34:30.374Z,19.75
2022-08-20T04:35:18.155Z,19.87
2022-08-20T04:36:06.352Z,19.88
2022-08-20T04:36:53.292Z,19.88
2022-08-20T04:37:41.520Z,19.89
2022-08-20T04:38:49.868Z,19.88
2022-08-20T04:39:36.992Z,19.79
2022-08-20T04:40:42.122Z,19.85
2022-08-20T04:41:28.997Z,19.95
2022-08-20T04:42:15.648Z,20.01
2022-08-20T04:43:04.960Z,20.01
2022-08-20T04:43:56.549Z,20.01
2022-08-20T04:44:43.518Z,19.99
2022-08-20T04:45:34.561Z,19.95
2022-08-20T04:46:25.656Z,19.84
2022-08-20T04:47:34.472Z,19.82
2022-08-20T04:48:23.960Z,19.81
2022-08-20T04:49:11.082Z,19.65
2022-08-20T04:50:04.026Z,19.41
2022-08-20T04:50:54.021Z,19.42
2022-08-20T04:51:48.161Z,19.47
2022-08-20T04:52:41.170Z,19.35
2022-08-20T04:53:31.632Z,19.57
2022-08-20T04:54:18.264Z,19.54
2022-08-20T04:55:06.516Z,19.54
2022-08-20T04:55:55.565Z,19.62
2022-08-20T04:56:42.234Z,19.50
2022-08-20T04:57:29.111Z,19.50
2022-08-20T04:58:27.304Z,19.51
2022-08-20T04:59:13.984Z,19.52
2022-08-20T05:00:00.740Z,19.48
2022-08-20T05:00:56.460Z,19.48
2022-08-20T05:01:47.758Z,19.48
2022-08-20T05:02:35.850Z,19.56
2022-08-20T05:03:23.606Z,19.62
2022-08-20T05:04:11.605Z,19.58
2022-08-20T05:05:00.489Z,19.64
2022-08-20T05:05:51.683Z,19.39
2022-08-20T05:06:38.822Z,19.49
2022-08-20T05:07:26.257Z,19.56
2022-08-20T05:08:19.816Z,19.44
2022-08-20T05:09:07.414Z,19.48
2022-08-20T05:09:57.775Z,19.36
2022-08-20T05:10:47.527Z,19.26
2022-08-20T05:11:39.228Z,19.34
2022-08-20T05:12:28.956Z,19.48
2022-08-20T05:13:16.744Z,19.43
2022-08-20T05:14:12.440Z,19.40
2022-08-20T05:15:00.305Z,19.41
2022-08-20T05:15:48.600Z,19.45
2022-08-20T05:16:39.959Z,19.41
2022-08-20T05:17:29.933Z,19.50
2022-08-20T05:18:22.601Z,19.38
2022-08-20T05:19:19.528Z,19.48
2022-08-20T05:20:11.368Z,19.44
2022-08-20T05:21:09.224Z,19.16
2022-08-20T05:21:56.406Z,19.28
2022-08-20T05:22:44.184Z,19.14
2022-08-20T05:23:31.007Z,19.35
2022-08-20T05:24:19.384Z,19.24
2022-08-20T05:25:11.724Z,19.07
2022-08-20T05:25:58.543Z,19.19
2022-08-20T05:26:47.477Z,19.33
2022-08-20T05:27:34.018Z,19.13
2022-08-20T05:28:29.056Z,19.29
2022-08-20T05:29:16.599Z,19.28
2022-08-20T05:30:11.771Z,19.35
2022-08-20T05:31:02.898Z,19.19
2022-08-20T05:31:50.268Z,19.22
2022-08-20T05:32:44.463Z,19.33
2022-08-20T05:33:31.423Z,19.37
2022-08-20T05:34:18.007Z,19.39
2022-08-20T05:35:09.075Z,19.32
2022-08-20T05:35:56.108Z,19.33
2022-08-20T05:36:49.280Z,19.37
2022-08-20T05:37:44.987Z,19.37
2022-08-20T05:38:32.569Z,19.30
2022-08-20T05:39:21.896Z,19.39
2022-08-20T05:40:14.330Z,19.26
2022-08-20T05:41:01.604Z,19.25
2022-08-20T05:41:50.754Z,19.32
2022-08-20T05:42:37.761Z,19.40
2022-08-20T05:43:24.384Z,19.36
2022-08-20T05:44:13.677Z,19.30
2022-08-20T05:45:00.380Z,19.22
2022-08-20T05:45:56.693Z,19.38
2022-08-20T05:46:45.730Z,19.37
2022-08-20T05:47:32.954Z,19.37
2022-08-20T05:48:25.821Z,19.52
2022-08-20T05:49:16.254Z,19.46
2022-08-20T05:50:05.258Z,19.42
2022-08-20T05:50:54.391Z,19.45
2022-08-20T05:51:41.048Z,19.53
2022-08-20T05:52:29.540Z,19.40
2022-08-20T05:53:17.832Z,19.45
2022-08-20T05:54:05.882Z,19.53
2022-08-20T05:54:55.411Z,19.51
2022-08-20T05:55:42.386Z,19.42
2022-08-20T05:56:30.928Z,19.41
2022-08-20T05:57:19.763Z,19.44
2022-08-20T05:58:18.549Z,19.44
2022-08-20T05:59:08.509Z,19.44
2022-08-20T05:59:55.232Z,19.41
2022-08-20T06:00:41.762Z,19.45
2022-08-20T06:01:28.540Z,19.39
2022-08-20T06:02:34.248Z,19.48
2022-08-20T06:03:40.128Z,19.56
2022-08-20T06:04:28.417Z,19.50
2022-08-20T06:05:15.449Z,19.55
2022-08-20T06:06:04.358Z,19.43
2022-08-20T06:07:07.403Z,19.51
2022-08-20T06:07:54.796Z,19.57
2022-08-20T06:08:44.480Z,19.67
2022-08-20T06:09:32.948Z,19.80
2022-08-20T06:10:19.654Z,19.84
2022-08-20T06:11:07.583Z,19.90
2022-08-20T06:11:54.565Z,19.81
2022-08-20T06:12:48.547Z,19.80
2022-08-20T06:13:37.109Z,19.72
2022-08-20T06:14:23.673Z,19.81
2022-08-20T06:15:13.113Z,19.79
2022-08-20T06:16:01.529Z,19.90
2022-08-20T06:17:02.226Z,19.85
2022-08-20T06:17:58.120Z,19.97
2022-08-20T06:18:45.083Z,20.00
2022-08-20T06:19:33.259Z,20.00
2022-08-20T06:20:19.923Z,20.03
2022-08-20T06:21:07.063Z,20.06
2022-08-20T06:21:53.746Z,19.99
2022-08-20T06:22:40.724Z,19.99
2022-08-20T06:23:27.564Z,20.01
2022-08-20T06:24:34.060Z,19.90
2022-08-20T06:25:20.597Z,19.80
2022-08-20T06:26:09.238Z,19.76
2022-08-20T06:27:00.652Z,19.84
2022-08-20T06:27:47.194Z,19.95
2022-08-20T06:28:33.608Z,20.08
2022-08-20T06:29:20.950Z,20.01
2022-08-20T06:30:10.484Z,19.99
2022-08-20T06:30:57.535Z,19.90
2022-08-20T06:31:44.042Z,19.92
2022-08-20T06:32:32.713Z,19.85
2022-08-20T06:33:19.584Z,19.90
2022-08-20T06:34:07.347Z,19.93
2022-08-20T06:34:53.843Z,19.92
2022-08-20T06:35:41.121Z,19.95
2022-08-20T06:36:27.735Z,19.90
2022-08-20T06:37:21.891Z,19.85
2022-08-20T06:38:10.501Z,19.97
2022-08-20T06:38:58.295Z,19.90
2022-08-20T06:39:44.823Z,19.95
2022-08-20T06:40:34.096Z,20.09
2022-08-20T06:41:20.587Z,19.92
2022-08-20T06:42:07.251Z,20.06
2022-08-20T06:42:55.231Z,20.00
2022-08-20T06:43:43.217Z,19.91
2022-08-20T06:44:29.761Z,20.03
2022-08-20T06:45:20.543Z,20.09
2022-08-20T06:46:07.309Z,20.17
2022-08-20T06:46:59.631Z,20.19
2022-08-20T06:47:47.555Z,20.18
2022-08-20T06:48:34.771Z,20.35
2022-08-20T06:49:23.814Z,20.20
2022-08-20T06:50:14.658Z,20.17
2022-08-20T06:51:01.478Z,20.19
2022-08-20T06:51:52.007Z,20.20
2022-08-20T06:52:53.052Z,20.13
2022-08-20T06:53:39.831Z,20.03
2022-08-20T06:54:29.247Z,19.97
2022-08-20T06:55:17.438Z,19.89
2022-08-20T06:56:04.631Z,19.93
2022-08-20T06:56:54.061Z,19.96
2022-08-20T06:57:43.288Z,19.79
2022-08-20T06:58:36.930Z,19.75
2022-08-20T06:59:24.580Z,19.78
2022-08-20T07:00:15.816Z,19.76
2022-08-20T07:01:09.374Z,19.79
2022-08-20T07:01:57.490Z,19.89
2022-08-20T07:02:44.241Z,19.91
2022-08-20T07:03:31.131Z,19.79
2022-08-20T07:04:17.717Z,19.99
2022-08-20T07:05:06.194Z,20.17
2022-08-20T07:05:52.658Z,20.13
2022-08-20T07:06:39.979Z,20.09
2022-08-20T07:07:26.451Z,20.06
2022-08-20T07:08:18.669Z,20.11
2022-08-20T07:09:05.467Z,20.09
2022-08-20T07:09:59.997Z,19.97
2022-08-20T07:10:48.900Z,19.76
2022-08-20T07:11:36.054Z,20.03
2022-08-20T07:12:22.541Z,20.07
2022-08-20T07:13:11.403Z,20.08
2022-08-20T07:13:58.699Z,20.21
2022-08-20T07:14:45.265Z,20.18
2022-08-20T07:15:33.490Z,20.28
2022-08-20T07:16:20.025Z,20.32
2022-08-20T07:17:06.881Z,20.34
2022-08-20T07:18:02.808Z,20.38
2022-08-20T07:18:49.322Z,20.44
2022-08-20T07:19:37.422Z,20.48
2022-08-20T07:20:24.449Z,20.51
2022-08-20T07:21:12.122Z,20.53
2022-08-20T07:21:58.921Z,20.37
2022-08-20T07:22:48.626Z,20.51
2022-08-20T07:23:36.285Z,20.53
2022-08-20T07:24:23.057Z,20.57
2022-08-20T07:25:14.277Z,20.62
2022-08-20T07:26:00.862Z,20.62
2022-08-20T07:26:47.320Z,20.55
2022-08-20T07:27:35.017Z,20.47
2022-08-20T07:28:28.717Z,20.22
2022-08-20T07:29:15.234Z,20.34
2022-08-20T07:30:20.830Z,20.38
2022-08-20T07:31:26.043Z,20.43
2022-08-20T07:32:32.290Z,20.42
2022-08-20T07:33:24.372Z,20.43
2022-08-20T07:34:11.625Z,20.47
2022-08-20T07:34:58.463Z,20.40
2022-08-20T07:35:48.741Z,20.43
2022-08-20T07:36:35.439Z,20.39
2022-08-20T07:37:23.785Z,20.57
2022-08-20T07:38:24.422Z,20.58
2022-08-20T07:39:10.998Z,20.66
2022-08-20T07:39:57.647Z,20.71
2022-08-20T07:40:44.371Z,20.74
2022-08-20T07:41:30.889Z,20.70
2022-08-20T07:42:17.499Z,20.64
2022-08-20T07:43:04.080Z,20.65
2022-08-20T07:43:50.588Z,20.60
2022-08-20T07:44:39.234Z,20.66
2022-08-20T07:45:25.742Z,20.43
2022-08-20T07:46:20.844Z,20.55
2022-08-20T07:47:07.646Z,20.67
2022-08-20T07:47:55.805Z,20.63
2022-08-20T07:48:50.059Z,20.71
2022-08-20T07:49:40.592Z,20.68
2022-08-20T07:50:27.212Z,20.70
2022-08-20T07:51:17.954Z,20.71
2022-08-20T07:52:05.576Z,20.76
2022-08-20T07:52:53.642Z,20.91
2022-08-20T07:53:41.104Z,20.93
2022-08-20T07:54:27.989Z,20.94
2022-08-20T07:55:17.324Z,20.90
2022-08-20T07:56:08.657Z,20.98
2022-08-20T07:56:55.478Z,21.13
2022-08-20T07:57:46.874Z,21.15
2022-08-20T07:58:38.220Z,21.23
2022-08-20T07:59:24.779Z,21.27
2022-08-20T08:00:12.793Z,21.24
2022-08-20T08:01:00.807Z,21.26
2022-08-20T08:01:47.661Z,21.24
2022-08-20T08:02:35.145Z,21.36
2022-08-20T08:03:21.864Z,21.47
2022-08-20T08:04:26.450Z,21.47
2022-08-20T08:05:13.670Z,21.49
2022-08-20T08:06:00.600Z,21.42
2022-08-20T08:06:47.102Z,21.39
2022-08-20T08:07:34.908Z,21.25
2022-08-20T08:08:27.004Z,21.30
2022-08-20T08:09:14.746Z,21.46
2022-08-20T08:10:02.599Z,21.48
2022-08-20T08:10:52.401Z,21.52
2022-08-20T08:11:50.423Z,21.43
2022-08-20T08:12:42.010Z,21.62
2022-08-20T08:13:35.747Z,21.76
2022-08-20T08:14:27.270Z,21.64
2022-08-20T08:15:18.482Z,21.78
2022-08-20T08:16:10.024Z,21.80
2022-08-20T08:17:00.298Z,21.76
2022-08-20T08:17:49.625Z,21.57
2022-08-20T08:18:50.062Z,21.38
2022-08-20T08:19:42.311Z,21.23
2022-08-20T08:20:29.297Z,21.28
2022-08-20T08:21:17.660Z,21.30
2022-08-20T08:22:12.220Z,21.19
2022-08-20T08:22:58.840Z,21.16
2022-08-20T08:23:45.689Z,21.10
2022-08-20T08:24:32.297Z,21.12
2022-08-20T08:25:18.922Z,20.89
2022-08-20T08:26:06.141Z,20.91
2022-08-20T08:26:55.449Z,20.90
2022-08-20T08:27:41.908Z,20.98
2022-08-20T08:28:29.639Z,20.81
2022-08-20T08:29:16.497Z,20.78
2022-08-20T08:30:04.196Z,20.85
2022-08-20T08:30:51.778Z,20.84
2022-08-20T08:31:38.300Z,21.05
2022-08-20T08:32:27.143Z,20.89
2022-08-20T08:33:29.344Z,20.87
2022-08-20T08:34:18.340Z,20.68
2022-08-20T08:35:10.516Z,20.73
2022-08-20T08:36:10.268Z,20.63
2022-08-20T08:36:58.501Z,20.68
2022-08-20T08:37:45.695Z,20.74
2022-08-20T08:38:34.925Z,20.75
2022-08-20T08:39:22.334Z,20.68
2022-08-20T08:40:09.487Z,20.75
2022-08-20T08:41:07.555Z,20.75
2022-08-20T08:41:55.182Z,20.88
2022-08-20T08:42:55.750Z,20.82
2022-08-20T08:43:49.498Z,20.87
2022-08-20T08:44:41.369Z,20.85
2022-08-20T08:45:38.267Z,20.80
2022-08-20T08:46:27.358Z,20.76
2022-08-20T08:47:29.461Z,20.64
2022-08-20T08:48:19.707Z,20.49
2022-08-20T08:49:07.502Z,20.34
2022-08-20T08:49:54.445Z,20.52
2022-08-20T08:50:53.483Z,20.62
2022-08-20T08:51:47.769Z,20.71
2022-08-20T08:52:41.084Z,20.63
2022-08-20T08:53:42.811Z,20.75
2022-08-20T08:54:31.532Z,20.73
2022-08-20T08:55:21.317Z,20.55
2022-08-20T08:56:09.805Z,20.45
2022-08-20T08:56:56.421Z,20.48
2022-08-20T08:57:42.981Z,20.39
2022-08-20T08:58:29.683Z,20.23
2022-08-20T08:59:16.679Z,20.24
2022-08-20T09:00:14.726Z,20.14
2022-08-20T09:01:13.842Z,19.99
2022-08-20T09:02:26.469Z,20.14
2022-08-20T09:03:22.462Z,20.21
2022-08-20T09:04:09.617Z,20.21
2022-08-20T09:05:01.163Z,20.09
2022-08-20T09:05:55.012Z,20.31
2022-08-20T09:06:43.348Z,20.33
2022-08-20T09:07:33.579Z,20.44
2022-08-20T09:08:28.978Z,20.37
2022-08-20T09:09:28.399Z,20.17
2022-08-20T09:10:16.069Z,20.42
2022-08-20T09:11:10.467Z,20.50
2022-08-20T09:12:13.606Z,20.40
2022-08-20T09:13:01.221Z,20.32
2022-08-20T09:13:48.627Z,20.22
2022-08-20T09:14:35.889Z,20.22
2022-08-20T09:15:22.781Z,20.35
2022-08-20T09:16:10.328Z,20.41
2022-08-20T09:16:56.859Z,20.30
2022-08-20T09:17:43.627Z,20.28
2022-08-20T09:18:30.541Z,20.39
2022-08-20T09:19:24.805Z,20.19
2022-08-20T09:20:11.417Z,20.09
2022-08-20T09:20:57.983Z,20.20
2022-08-20T09:21:44.468Z,20.24
2022-08-20T09:22:33.280Z,20.23
2022-08-20T09:23:20.093Z,20.17
2022-08-20T09:24:06.784Z,20.30
2022-08-20T09:24:53.619Z,20.30
2022-08-20T09:25:40.210Z,20.29
2022-08-20T09:26:29.097Z,20.30
2022-08-20T09:27:16.360Z,20.37
2022-08-20T09:28:03.291Z,20.55
2022-08-20T09:28:52.025Z,20.60
2022-08-20T09:29:39.105Z,20.62
2022-08-20T09:30:25.880Z,20.62
2022-08-20T09:31:12.481Z,20.46
2022-08-20T09:32:06.063Z,20.65
2022-08-20T09:32:53.848Z,20.71
2022-08-20T09:33:40.442Z,20.63
2022-08-20T09:34:26.946Z,20.70
2022-08-20T09:35:13.689Z,20.59
2022-08-20T09:36:01.654Z,20.66
2022-08-20T09:36:48.173Z,20.58
2022-08-20T09:37:37.528Z,20.52
2022-08-20T09:38:24.584Z,20.60
2022-08-20T09:39:12.768Z,20.55
2022-08-20T09:40:00.625Z,20.68
2022-08-20T09:40:47.205Z,20.59
2022-08-20T09:41:34.314Z,20.54
2022-08-20T09:42:26.784Z,20.44
2022-08-20T09:43:13.752Z,20.49
2022-08-20T09:44:03.722Z,20.41
2022-08-20T09:44:53.836Z,20.42
2022-08-20T09:45:40.982Z,20.43
2022-08-20T09:46:27.817Z,20.44
2022-08-20T09:47:15.449Z,20.26
2022-08-20T09:48:02.537Z,20.30
2022-08-20T09:48:49.062Z,20.38
2022-08-20T09:49:37.315Z,20.22
2022-08-20T09:50:26.345Z,20.27
2022-08-20T09:51:13.031Z,20.34
2022-08-20T09:52:01.488Z,20.43
2022-08-20T09:52:53.734Z,20.49
2022-08-20T09:53:41.785Z,20.57
2022-08-20T09:54:30.147Z,20.62
2022-08-20T09:55:38.229Z,20.70
2022-08-20T09:56:25.202Z,20.66
2022-08-20T09:57:15.256Z,20.80
2022-08-20T09:58:06.407Z,20.55
2022-08-20T09:58:58.912Z,20.51
2022-08-20T09:59:54.542Z,20.44
2022-08-20T10:00:42.582Z,20.32
2022-08-20T10:01:29.455Z,20.54
2022-08-20T10:02:15.961Z,20.69
2022-08-20T10:03:03.333Z,20.72
2022-08-20T10:03:51.009Z,20.62
2022-08-20T10:04:37.549Z,20.79
2022-08-20T10:05:24.251Z,20.88
2022-08-20T10:06:14.679Z,21.02
2022-08-20T10:07:01.229Z,21.08
2022-08-20T10:07:47.669Z,21.17
2022-08-20T10:08:34.128Z,21.10
2022-08-20T10:09:20.685Z,20.98
2022-08-20T10:10:09.936Z,21.07
2022-08-20T10:10:56.569Z,20.84
2022-08-20T10:11:43.701Z,20.84
2022-08-20T10:12:30.282Z,20.72
2022-08-20T10:13:19.139Z,20.88
2022-08-20T10:14:06.117Z,20.73
2022-08-20T10:14:52.600Z,20.88
2022-08-20T10:15:39.084Z,21.10
2022-08-20T10:16:28.451Z,21.11
2022-08-20T10:17:15.067Z,21.12
2022-08-20T10:18:07.474Z,21.28
2022-08-20T10:18:53.990Z,21.44
2022-08-20T10:19:40.648Z,21.40
2022-08-20T10:20:27.159Z,21.31
2022-08-20T10:21:13.681Z,21.49
2022-08-20T10:22:00.335Z,21.58
2022-08-20T10:22:46.959Z,21.62
2022-08-20T10:23:33.422Z,21.76
2022-08-20T10:24:21.439Z,21.86
2022-08-20T10:25:09.971Z,21.97
2022-08-20T10:25:59.224Z,22.25
2022-08-20T10:26:49.410Z,22.32
2022-08-20T10:27:36.813Z,22.44
2022-08-20T10:28:23.525Z,22.29
2022-08-20T10:29:10.050Z,22.08
2022-08-20T10:29:56.539Z,22.13
2022-08-20T10:30:45.022Z,22.24
2022-08-20T10:31:31.625Z,22.13
2022-08-20T10:32:18.552Z,22.37
2022-08-20T10:33:07.767Z,22.56
2022-08-20T10:33:54.342Z,22.71
2022-08-20T10:34:44.297Z,22.79
2022-08-20T10:35:31.150Z,22.92
2022-08-20T10:36:18.028Z,23.02
2022-08-20T10:37:04.797Z,23.03
2022-08-20T10:37:51.973Z,23.10
2022-08-20T10:38:38.758Z,22.81
2022-08-20T10:39:25.190Z,22.72
2022-08-20T10:40:13.854Z,23.06
2022-08-20T10:41:03.095Z,23.04
2022-08-20T10:41:49.717Z,23.03
2022-08-20T10:42:41.807Z,22.88
2022-08-20T10:43:29.557Z,23.17
2022-08-20T10:44:19.545Z,23.36